Aérodrome :
LOGIN :

S'inscrire | Disclaimer

   EN    FR    IT 

 










Légende :    VFR   VFR Marginal   IFR   IFR Intensif   IFR Très Intensif
Visi : 
Plafond : 
>= 8 km
>= 3000ft
5 à 8 km
1000 à 3000 ft
1500m à 5 km
500 à 1000 ft
800 à 1500m
200 à 500 ft
< 800m
< 200 ft
Symboles :   Orages  Brouillard  Fortes neiges  Fortes précipitations  Vent > 20 kt
SIGMETs :   Divers  Orages  Givrage  Turbulence  Onde Orograph.  Cendres Volcan.







- Altitude de l'aérodrome : 74 ft
- Code IATA : EIN


EHEH - Eindhoven

DERNIER METAR :
  • 240655Z AUTO 14005KT 110V230 9999 NCD 27/15 Q1014 BLU 14005KT CAVOK

METARs EXPIRÉS :
  • 240625Z AUTO 13005KT 100V230 9999 NCD 26/15 Q1014 BLU 14005KT CAVOK
  • 240555Z AUTO 13006KT 120V200 9999 NCD 24/15 Q1014 BLU 14005KT CAVOK
  • 240525Z AUTO 14006KT 110V200 9999 NCD 23/15 Q1014 BLU 14005KT CAVOK
  • 240506Z AUTO 14007KT 9999 FEW026CB 22/15 Q1014 BLU 14005KT CAVOK
  • 240455Z AUTO 13007KT 100V160 9999 FEW350 22/15 Q1014 BLU 14005KT CAVOK
  • 240440Z AUTO 13005KT 100V190 9999 OVC350 21/15 Q1014 BLU 14005KT CAVOK
  • 240425Z AUTO VRB05KT 9999 FEW360 21/15 Q1014 BLU

TAF TAF EHEH
Valide du 24 à 06h jusqu'au 25 à 12h UTC


240512Z 2406/2512 14007KT CAVOK
BECMG 2416/2419 31008KT
BECMG 2422/2500 VRB02KT
BECMG 2506/2509 10006KT
Pas de NOTAMs connus pour ce terrain.



MET'MAP, la Météo Aéronautique d'un coup d'oeil ! - Copyright ORBIFLY Décembre 2007 - Disclaimer

ORBIFLY MET'MAP TEAM :

Programmation & Développement : Alexandra Zaïnal
Conception & Développement : Baudouin d'Aumeries
Co-Programmation & Développement : Marc-Olivier Méhu
Soutien technique & logistique : Manuel Goepfert

Contact : metmap@orbifly.com




SOURCES & CREDITS :

   NOAA